Wheaton Aston, United Kingdom
Current Conditions -  °F | °C
As of 2:50 AM on Sunday 26 Oct 2014 (Local Time) from EGOS Reporting Station
Broken Clouds Broken Clouds  
Wind Chill: 54°   Ceiling: 3900
Heat Index: 54°   Visibility: 6mi
Dew Point: 46°   Wind: 9mph
Humidity: 77%   Direction: 170°S
Pressure: 30"   Gusts: NA
Location:  52.71°N, 2.22°W
Report Text: EGOS 260150Z AUTO 17008KT 9999 SCT027/// BKN039/// 12/08 Q1016
Loading
Personal Weather Stations






























Interactive Weather Map
Tropical Storm Tracking
New forecast layout! Learn more

10-Day Weather Forecast

Advertisements
Track Severe Weather on mobile